createdAt,value
2023-03-12T00:01:30.758Z,59.70
2023-03-12T00:03:59.334Z,59.80
2023-03-12T00:06:28.328Z,59.70
2023-03-12T00:08:58.902Z,59.70
2023-03-12T00:11:27.272Z,59.70
2023-03-12T00:14:00.228Z,59.70
2023-03-12T00:16:29.776Z,59.70
2023-03-12T00:18:58.347Z,60.00
2023-03-12T00:21:27.185Z,59.70
2023-03-12T00:23:57.015Z,59.60
2023-03-12T00:26:25.516Z,60.00
2023-03-12T00:28:53.980Z,59.60
2023-03-12T00:31:27.221Z,59.60
2023-03-12T00:33:56.074Z,60.10
2023-03-12T00:36:27.350Z,59.70
2023-03-12T00:38:58.619Z,59.90
2023-03-12T00:41:28.362Z,59.80
2023-03-12T00:43:57.078Z,59.70
2023-03-12T00:46:25.801Z,59.70
2023-03-12T00:48:54.458Z,59.60
2023-03-12T00:51:23.373Z,60.10
2023-03-12T00:53:53.360Z,60.00
2023-03-12T00:56:23.899Z,59.60
2023-03-12T00:58:55.734Z,59.60
2023-03-12T01:01:25.687Z,59.40
2023-03-12T01:03:56.193Z,59.50
2023-03-12T01:06:25.975Z,59.50
2023-03-12T01:09:01.620Z,59.80
2023-03-12T01:11:38.636Z,59.70
2023-03-12T01:14:20.329Z,59.70
2023-03-12T01:16:57.819Z,59.80
2023-03-12T01:19:28.037Z,59.80
2023-03-12T01:21:57.403Z,59.70
2023-03-12T01:24:28.136Z,59.70
2023-03-12T01:26:58.913Z,59.80
2023-03-12T01:29:27.922Z,60.50
2023-03-12T01:31:57.694Z,60.30
2023-03-12T01:34:30.303Z,59.60
2023-03-12T01:37:01.316Z,60.20
2023-03-12T01:39:30.819Z,59.50
2023-03-12T01:42:04.805Z,59.60
2023-03-12T01:44:54.121Z,60.20
2023-03-12T01:47:27.084Z,59.70
2023-03-12T01:50:10.763Z,60.00
2023-03-12T01:52:43.101Z,60.60
2023-03-12T01:55:20.778Z,60.00
2023-03-12T01:57:59.614Z,60.60
2023-03-12T02:00:34.104Z,59.90
2023-03-12T02:03:09.447Z,60.50
2023-03-12T02:05:48.456Z,59.80
2023-03-12T02:08:38.813Z,60.10
2023-03-12T02:14:24.783Z,59.80
2023-03-12T02:20:34.535Z,59.90
2023-03-12T02:23:31.174Z,59.90
2023-03-12T02:26:35.985Z,59.80
2023-03-12T02:29:53.868Z,59.80
2023-03-12T02:36:21.379Z,59.60
2023-03-12T02:38:53.146Z,59.70
2023-03-12T02:41:27.955Z,60.00
2023-03-12T02:44:07.133Z,59.80
2023-03-12T02:46:40.846Z,60.00
2023-03-12T02:49:12.609Z,60.30
2023-03-12T02:51:47.009Z,59.50
2023-03-12T02:54:18.913Z,59.90
2023-03-12T02:56:50.424Z,59.70
2023-03-12T02:59:21.957Z,59.80
2023-03-12T03:01:55.710Z,59.80
2023-03-12T03:04:25.130Z,60.10
2023-03-12T03:06:54.032Z,59.80
2023-03-12T03:09:23.198Z,59.80
2023-03-12T03:11:53.264Z,59.70
2023-03-12T03:14:23.418Z,60.10
2023-03-12T03:16:53.030Z,59.70
2023-03-12T03:19:24.408Z,60.30
2023-03-12T03:22:00.419Z,59.90
2023-03-12T03:24:33.672Z,59.70
2023-03-12T03:27:04.554Z,60.00
2023-03-12T03:29:58.414Z,59.60
2023-03-12T03:32:27.570Z,60.20
2023-03-12T03:34:56.032Z,59.80
2023-03-12T03:37:24.672Z,59.70
2023-03-12T03:39:53.205Z,59.70
2023-03-12T03:42:32.153Z,59.90
2023-03-12T03:45:00.811Z,59.80
2023-03-12T03:47:29.337Z,60.30
2023-03-12T03:49:57.880Z,59.60
2023-03-12T03:52:26.563Z,59.60
2023-03-12T03:54:57.017Z,59.50
2023-03-12T03:57:25.613Z,59.60
2023-03-12T03:59:56.389Z,60.00
2023-03-12T04:02:25.008Z,59.50
2023-03-12T04:04:53.759Z,59.50
2023-03-12T04:07:22.605Z,59.60
2023-03-12T04:09:51.603Z,59.60
2023-03-12T04:12:20.294Z,59.90
2023-03-12T04:14:53.394Z,60.10
2023-03-12T04:17:24.626Z,59.70
2023-03-12T04:19:53.746Z,59.70
2023-03-12T04:25:28.135Z,59.60
2023-03-12T04:27:57.000Z,59.70
2023-03-12T04:30:25.764Z,60.40
2023-03-12T04:33:15.725Z,60.30
2023-03-12T04:36:17.287Z,59.80
2023-03-12T04:39:13.080Z,60.30
2023-03-12T04:41:42.400Z,60.20
2023-03-12T04:44:16.700Z,60.30
2023-03-12T04:47:14.405Z,60.10
2023-03-12T04:50:21.259Z,59.70
2023-03-12T04:53:38.722Z,59.60
2023-03-12T04:56:10.353Z,59.80
2023-03-12T04:58:40.543Z,60.00
2023-03-12T05:01:12.795Z,60.40
2023-03-12T05:03:41.554Z,59.90
2023-03-12T05:06:11.430Z,59.90
2023-03-12T05:08:40.160Z,59.80
2023-03-12T05:11:08.826Z,59.80
2023-03-12T05:13:37.367Z,59.80
2023-03-12T05:16:07.303Z,60.00
2023-03-12T05:18:36.560Z,60.00
2023-03-12T05:21:08.050Z,60.10
2023-03-12T05:23:39.529Z,60.00
2023-03-12T05:26:08.667Z,60.00
2023-03-12T05:28:44.996Z,60.00
2023-03-12T05:31:20.969Z,60.20
2023-03-12T05:33:52.774Z,60.30
2023-03-12T05:36:22.619Z,60.70
2023-03-12T05:38:53.351Z,60.40
2023-03-12T05:41:25.498Z,60.20
2023-03-12T05:43:59.126Z,60.30
2023-03-12T05:46:30.115Z,60.50
2023-03-12T05:49:01.063Z,59.90
2023-03-12T05:51:31.115Z,59.90
2023-03-12T05:54:01.429Z,60.00
2023-03-12T05:56:31.520Z,60.00
2023-03-12T05:59:00.401Z,59.90
2023-03-12T06:01:32.691Z,60.10
2023-03-12T06:04:03.514Z,60.20
2023-03-12T06:06:33.264Z,59.80
2023-03-12T06:09:05.209Z,59.80
2023-03-12T06:11:36.336Z,60.40
2023-03-12T06:14:06.188Z,60.40
2023-03-12T06:16:37.069Z,60.70
2023-03-12T06:19:06.825Z,60.40
2023-03-12T06:21:37.254Z,60.80
2023-03-12T06:24:10.638Z,60.40
2023-03-12T06:26:44.632Z,59.80
2023-03-12T06:29:13.136Z,60.00
2023-03-12T06:31:42.287Z,59.90
2023-03-12T06:34:11.287Z,60.00
2023-03-12T06:36:39.777Z,60.10
2023-03-12T06:39:09.902Z,60.60
2023-03-12T06:41:38.646Z,60.10
2023-03-12T06:44:07.239Z,60.20
2023-03-12T06:46:35.938Z,60.30
2023-03-12T06:49:04.371Z,60.30
2023-03-12T06:51:33.172Z,60.30
2023-03-12T06:54:02.701Z,60.50
2023-03-12T06:56:33.576Z,61.00
2023-03-12T06:59:02.349Z,60.50
2023-03-12T07:01:30.786Z,60.60
2023-03-12T07:03:59.210Z,60.90
2023-03-12T07:06:27.688Z,60.50
2023-03-12T07:08:56.066Z,60.60
2023-03-12T07:11:24.508Z,60.60
2023-03-12T07:13:54.434Z,60.70
2023-03-12T07:16:22.981Z,60.80
2023-03-12T07:18:51.466Z,60.80
2023-03-12T07:21:22.821Z,61.00
2023-03-12T07:23:51.817Z,61.10
2023-03-12T07:26:21.167Z,61.30
2023-03-12T07:28:49.527Z,61.30
2023-03-12T07:31:19.303Z,61.30
2023-03-12T07:33:47.840Z,61.40
2023-03-12T07:36:16.473Z,61.40
2023-03-12T07:38:44.854Z,61.40
2023-03-12T07:41:13.258Z,61.50
2023-03-12T07:43:42.149Z,61.50
2023-03-12T07:46:10.460Z,61.40
2023-03-12T07:48:42.840Z,62.20
2023-03-12T07:51:12.989Z,61.80
2023-03-12T07:53:41.535Z,61.60
2023-03-12T07:56:10.101Z,61.40
2023-03-12T07:58:39.472Z,61.30
2023-03-12T08:01:08.312Z,61.30
2023-03-12T08:03:39.090Z,61.50
2023-03-12T08:06:09.602Z,61.50
2023-03-12T08:08:42.570Z,61.50
2023-03-12T08:11:11.638Z,61.40
2023-03-12T08:13:40.391Z,61.50
2023-03-12T08:16:09.667Z,62.00
2023-03-12T08:18:38.446Z,61.50
2023-03-12T08:21:08.864Z,61.40
2023-03-12T08:23:38.195Z,61.40
2023-03-12T08:26:10.028Z,61.30
2023-03-12T08:28:38.881Z,61.70
2023-03-12T08:31:09.672Z,62.00
2023-03-12T08:33:52.954Z,61.60
2023-03-12T08:36:33.674Z,61.00
2023-03-12T08:39:05.645Z,60.70
2023-03-12T08:41:34.339Z,60.60
2023-03-12T08:44:04.114Z,60.90
2023-03-12T08:46:33.043Z,61.00
2023-03-12T08:50:19.243Z,61.20
2023-03-12T08:57:09.674Z,61.00
2023-03-12T09:00:26.971Z,60.90
2023-03-12T09:15:10.200Z,61.10
2023-03-12T09:17:40.040Z,61.00
2023-03-12T09:20:14.063Z,61.10
2023-03-12T09:22:43.061Z,61.20
2023-03-12T09:25:13.155Z,61.00
2023-03-12T09:27:45.168Z,60.90
2023-03-12T09:30:16.191Z,60.80
2023-03-12T09:32:45.697Z,60.60
2023-03-12T09:35:16.889Z,60.40
2023-03-12T09:37:49.558Z,60.10
2023-03-12T09:40:21.817Z,60.00
2023-03-12T09:42:56.084Z,60.00
2023-03-12T09:45:28.400Z,59.90
2023-03-12T09:48:04.356Z,59.80
2023-03-12T09:50:40.325Z,59.70
2023-03-12T09:53:18.159Z,59.80
2023-03-12T09:55:50.819Z,59.90
2023-03-12T09:58:27.586Z,59.80
2023-03-12T10:01:07.184Z,59.70
2023-03-12T10:04:12.166Z,59.80
2023-03-12T10:06:55.236Z,59.50
2023-03-12T10:10:09.006Z,59.50
2023-03-12T10:16:16.388Z,59.00
2023-03-12T10:19:04.762Z,58.90
2023-03-12T10:24:51.855Z,58.80
2023-03-12T10:27:21.398Z,58.60
2023-03-12T10:29:54.679Z,58.50
2023-03-12T10:32:29.701Z,58.10
2023-03-12T10:35:02.069Z,58.20
2023-03-12T10:37:35.715Z,58.20
2023-03-12T10:40:13.241Z,58.50
2023-03-12T10:42:42.093Z,58.00
2023-03-12T10:45:25.080Z,57.90
2023-03-12T10:47:58.769Z,57.90
2023-03-12T10:50:29.443Z,57.90
2023-03-12T10:53:23.798Z,57.80
2023-03-12T10:56:07.720Z,57.20
2023-03-12T10:58:40.571Z,57.10
2023-03-12T11:01:21.285Z,57.00
2023-03-12T11:03:52.018Z,56.70
2023-03-12T11:06:26.394Z,56.90
2023-03-12T11:09:16.934Z,56.60
2023-03-12T11:11:47.584Z,56.40
2023-03-12T11:14:20.550Z,56.40
2023-03-12T11:16:49.844Z,56.30
2023-03-12T11:19:29.860Z,56.30
2023-03-12T11:22:00.474Z,55.90
2023-03-12T11:24:29.568Z,56.20
2023-03-12T11:27:03.903Z,55.90
2023-03-12T11:29:39.731Z,55.80
2023-03-12T11:32:17.049Z,55.90
2023-03-12T11:34:49.692Z,55.70
2023-03-12T11:37:29.741Z,55.80
2023-03-12T11:40:15.025Z,55.90
2023-03-12T11:43:00.117Z,55.80
2023-03-12T11:45:35.793Z,55.70
2023-03-12T11:48:15.847Z,55.60
2023-03-12T11:50:58.537Z,55.10
2023-03-12T11:53:52.255Z,55.10
2023-03-12T11:56:29.141Z,54.90
2023-03-12T11:59:36.092Z,55.00
2023-03-12T12:02:21.271Z,54.50
2023-03-12T12:05:24.339Z,54.70
2023-03-12T12:08:10.970Z,54.60
2023-03-12T12:10:50.911Z,54.90
2023-03-12T12:13:29.063Z,55.00
2023-03-12T12:16:14.647Z,54.90
2023-03-12T12:18:59.240Z,55.50
2023-03-12T12:21:48.598Z,54.70
2023-03-12T12:24:38.027Z,54.40
2023-03-12T12:27:20.945Z,54.30
2023-03-12T12:30:07.991Z,54.00
2023-03-12T12:32:55.945Z,54.20
2023-03-12T12:35:31.745Z,54.40
2023-03-12T12:38:04.874Z,54.40
2023-03-12T12:40:39.821Z,54.30
2023-03-12T12:43:25.387Z,54.40
2023-03-12T12:45:57.047Z,54.30
2023-03-12T12:48:33.606Z,54.40
2023-03-12T12:51:05.200Z,54.30
2023-03-12T12:53:42.377Z,54.30
2023-03-12T12:56:21.660Z,54.10
2023-03-12T12:59:04.871Z,53.90
2023-03-12T13:01:35.393Z,53.70
2023-03-12T13:04:11.302Z,54.00
2023-03-12T13:06:57.053Z,53.70
2023-03-12T13:09:39.351Z,53.60
2023-03-12T13:12:26.939Z,53.90
2023-03-12T13:14:57.869Z,54.00
2023-03-12T13:17:35.885Z,54.40
2023-03-12T13:20:17.156Z,54.30
2023-03-12T13:23:21.585Z,54.20
2023-03-12T13:26:02.229Z,53.90
2023-03-12T13:28:37.021Z,54.20
2023-03-12T13:31:40.770Z,54.30
2023-03-12T13:34:51.818Z,53.90
2023-03-12T13:37:46.531Z,54.10
2023-03-12T13:40:55.457Z,54.40
2023-03-12T13:43:51.093Z,54.10
2023-03-12T13:46:46.350Z,54.00
2023-03-12T13:49:20.802Z,54.00
2023-03-12T13:52:01.985Z,54.20
2023-03-12T13:54:35.424Z,54.20
2023-03-12T13:57:12.571Z,54.30
2023-03-12T13:59:47.178Z,54.30
2023-03-12T14:02:24.517Z,54.30
2023-03-12T14:04:54.048Z,54.30
2023-03-12T14:07:46.392Z,54.50
2023-03-12T14:10:29.940Z,54.20
2023-03-12T14:13:13.869Z,54.50
2023-03-12T14:15:54.155Z,55.10
2023-03-12T14:18:25.989Z,55.00
2023-03-12T14:20:59.505Z,54.40
2023-03-12T14:23:33.833Z,54.40
2023-03-12T14:26:04.432Z,54.50
2023-03-12T14:28:40.317Z,54.60
2023-03-12T14:31:15.309Z,54.60
2023-03-12T14:33:56.267Z,54.60
2023-03-12T14:36:28.272Z,54.60
2023-03-12T14:39:11.423Z,54.70
2023-03-12T14:41:46.464Z,54.70
2023-03-12T14:44:24.106Z,54.70
2023-03-12T14:47:02.086Z,54.80
2023-03-12T14:49:32.713Z,54.90
2023-03-12T14:52:00.994Z,55.00
2023-03-12T14:54:30.119Z,55.00
2023-03-12T14:56:58.558Z,55.10
2023-03-12T14:59:31.243Z,55.20
2023-03-12T15:02:08.958Z,55.30
2023-03-12T15:04:37.423Z,55.30
2023-03-12T15:07:10.536Z,55.40
2023-03-12T15:09:38.895Z,55.40
2023-03-12T15:12:16.783Z,55.40
2023-03-12T15:14:45.241Z,55.40
2023-03-12T15:17:19.073Z,55.50
2023-03-12T15:19:49.086Z,55.40
2023-03-12T15:22:20.801Z,55.50
2023-03-12T15:24:49.274Z,55.50
2023-03-12T15:27:30.198Z,55.50
2023-03-12T15:30:00.308Z,55.50
2023-03-12T15:32:31.951Z,55.50
2023-03-12T15:35:00.849Z,55.60
2023-03-12T15:37:37.844Z,55.60
2023-03-12T15:40:18.928Z,55.60
2023-03-12T15:42:49.077Z,55.60
2023-03-12T15:45:21.812Z,55.60
2023-03-12T15:47:54.608Z,55.80
2023-03-12T15:50:28.818Z,55.60
2023-03-12T15:53:02.868Z,55.60
2023-03-12T15:55:32.575Z,55.70
2023-03-12T15:58:01.317Z,55.70
2023-03-12T16:00:31.957Z,55.70
2023-03-12T16:03:06.078Z,55.70
2023-03-12T16:05:36.987Z,55.70
2023-03-12T16:08:16.797Z,55.80
2023-03-12T16:10:46.275Z,55.70
2023-03-12T16:13:17.804Z,55.80
2023-03-12T16:15:47.827Z,55.90
2023-03-12T16:18:20.110Z,55.90
2023-03-12T16:20:49.826Z,56.00
2023-03-12T16:23:19.801Z,56.10
2023-03-12T16:25:51.921Z,56.10
2023-03-12T16:28:22.448Z,56.20
2023-03-12T16:30:51.355Z,56.20
2023-03-12T16:33:23.293Z,56.20
2023-03-12T16:35:51.978Z,56.80
2023-03-12T16:38:20.330Z,56.20
2023-03-12T16:40:51.033Z,56.30
2023-03-12T16:43:22.386Z,56.30
2023-03-12T16:45:53.148Z,56.40
2023-03-12T16:48:26.430Z,56.50
2023-03-12T16:50:56.919Z,56.60
2023-03-12T16:53:26.189Z,56.80
2023-03-12T16:55:57.909Z,56.70
2023-03-12T16:58:28.293Z,57.10
2023-03-12T17:00:57.878Z,57.00
2023-03-12T17:03:35.808Z,57.00
2023-03-12T17:06:07.160Z,57.10
2023-03-12T17:08:36.004Z,57.10
2023-03-12T17:11:13.619Z,57.10
2023-03-12T17:13:42.133Z,57.20
2023-03-12T17:16:13.379Z,57.30
2023-03-12T17:18:43.437Z,57.40
2023-03-12T17:21:13.663Z,57.40
2023-03-12T17:23:42.395Z,57.40
2023-03-12T17:26:11.304Z,57.50
2023-03-12T17:28:39.907Z,57.50
2023-03-12T17:31:24.027Z,57.50
2023-03-12T17:33:54.637Z,57.60
2023-03-12T17:36:23.627Z,58.00
2023-03-12T17:38:52.496Z,58.30
2023-03-12T17:41:26.805Z,58.50
2023-03-12T17:43:59.138Z,58.40
2023-03-12T17:46:31.929Z,58.70
2023-03-12T17:49:03.351Z,58.30
2023-03-12T17:51:53.552Z,58.10
2023-03-12T17:54:54.372Z,58.20
2023-03-12T18:04:31.248Z,58.30
2023-03-12T18:07:41.852Z,58.20
2023-03-12T18:10:57.550Z,58.30
2023-03-12T18:13:27.626Z,58.30
2023-03-12T18:16:00.033Z,58.20
2023-03-12T18:18:47.394Z,58.80
2023-03-12T18:21:41.709Z,58.10
2023-03-12T18:24:31.080Z,58.20
2023-03-12T18:27:19.603Z,58.50
2023-03-12T18:29:53.948Z,58.00
2023-03-12T18:32:22.665Z,58.40
2023-03-12T18:34:53.239Z,58.90
2023-03-12T18:37:23.067Z,58.50
2023-03-12T18:39:51.663Z,58.80
2023-03-12T18:42:20.132Z,58.60
2023-03-12T18:44:51.061Z,58.70
2023-03-12T18:47:20.832Z,58.80
2023-03-12T18:49:53.071Z,59.00
2023-03-12T18:52:21.410Z,59.00
2023-03-12T18:54:49.794Z,59.40
2023-03-12T18:57:18.092Z,59.10
2023-03-12T18:59:47.203Z,59.20
2023-03-12T19:02:15.687Z,59.10
2023-03-12T19:04:45.381Z,59.00
2023-03-12T19:07:14.202Z,59.00
2023-03-12T19:09:42.652Z,59.00
2023-03-12T19:12:11.535Z,58.90
2023-03-12T19:14:40.113Z,58.90
2023-03-12T19:17:08.544Z,59.00
2023-03-12T19:19:37.009Z,59.40
2023-03-12T19:22:06.863Z,59.10
2023-03-12T19:24:35.239Z,59.10
2023-03-12T19:27:03.568Z,59.10
2023-03-12T19:29:31.909Z,59.20
2023-03-12T19:32:00.374Z,59.30
2023-03-12T19:34:28.852Z,59.20
2023-03-12T19:36:57.413Z,59.30
2023-03-12T19:39:27.507Z,59.60
2023-03-12T19:41:55.860Z,59.50
2023-03-12T19:44:24.170Z,59.60
2023-03-12T19:46:52.726Z,59.80
2023-03-12T19:49:21.562Z,59.90
2023-03-12T19:51:50.123Z,60.00
2023-03-12T19:54:18.636Z,60.00
2023-03-12T19:56:48.384Z,59.90
2023-03-12T19:59:16.808Z,60.00
2023-03-12T20:01:45.247Z,60.00
2023-03-12T20:04:13.814Z,60.20
2023-03-12T20:06:42.359Z,60.20
2023-03-12T20:09:10.839Z,60.20
2023-03-12T20:11:39.612Z,60.30
2023-03-12T20:14:12.473Z,60.70
2023-03-12T20:16:41.007Z,61.10
2023-03-12T20:19:09.477Z,60.70
2023-03-12T20:21:37.890Z,61.50
2023-03-12T20:24:06.764Z,61.10
2023-03-12T20:26:35.539Z,61.10
2023-03-12T20:29:04.618Z,61.20
2023-03-12T20:31:35.847Z,61.30
2023-03-12T20:34:04.337Z,61.40
2023-03-12T20:36:33.234Z,61.30
2023-03-12T20:39:04.904Z,61.30
2023-03-12T20:41:41.163Z,60.80
2023-03-12T20:44:12.178Z,61.60
2023-03-12T20:46:58.661Z,60.70
2023-03-12T20:50:06.981Z,60.60
2023-03-12T20:52:48.353Z,60.50
2023-03-12T20:55:18.451Z,60.10
2023-03-12T21:13:04.512Z,59.70
2023-03-12T21:15:38.188Z,60.20
2023-03-12T21:18:07.601Z,59.70
2023-03-12T21:20:39.494Z,59.50
2023-03-12T21:23:09.507Z,59.70
2023-03-12T21:25:43.064Z,59.70
2023-03-12T21:28:14.038Z,59.50
2023-03-12T21:30:43.218Z,59.40
2023-03-12T21:33:20.318Z,59.40
2023-03-12T21:35:51.446Z,59.70
2023-03-12T21:38:19.948Z,59.60
2023-03-12T21:40:48.358Z,59.70
2023-03-12T21:43:16.690Z,59.70
2023-03-12T21:45:47.419Z,59.80
2023-03-12T21:48:15.795Z,59.80
2023-03-12T21:50:44.282Z,59.80
2023-03-12T21:53:23.133Z,59.80
2023-03-12T21:55:57.286Z,60.00
2023-03-12T21:58:26.223Z,60.20
2023-03-12T22:01:03.740Z,60.20
2023-03-12T22:03:32.562Z,60.30
2023-03-12T22:06:01.328Z,60.50
2023-03-12T22:08:31.409Z,60.50
2023-03-12T22:11:00.297Z,61.40
2023-03-12T22:13:29.175Z,60.80
2023-03-12T22:15:59.740Z,60.90
2023-03-12T22:18:29.880Z,61.10
2023-03-12T22:21:01.213Z,61.30
2023-03-12T22:23:31.512Z,61.30
2023-03-12T22:26:02.169Z,61.40
2023-03-12T22:28:31.299Z,61.30
2023-03-12T22:31:02.143Z,61.30
2023-03-12T22:33:32.756Z,61.30
2023-03-12T22:36:06.322Z,61.60
2023-03-12T22:38:39.371Z,61.60
2023-03-12T22:41:17.362Z,61.70
2023-03-12T22:43:47.476Z,61.90
2023-03-12T22:46:17.202Z,61.80
2023-03-12T22:48:47.587Z,61.70
2023-03-12T22:51:17.295Z,61.70
2023-03-12T22:53:47.503Z,61.70
2023-03-12T22:56:16.349Z,61.70
2023-03-12T22:58:45.432Z,61.70
2023-03-12T23:01:19.953Z,61.60
2023-03-12T23:03:49.290Z,61.50
2023-03-12T23:06:20.925Z,61.40
2023-03-12T23:08:51.567Z,61.40
2023-03-12T23:11:21.004Z,61.40
2023-03-12T23:13:49.881Z,61.10
2023-03-12T23:16:20.622Z,60.90
2023-03-12T23:18:50.801Z,60.80
2023-03-12T23:21:25.056Z,60.70
2023-03-12T23:23:57.105Z,60.80
2023-03-12T23:26:30.463Z,60.60
2023-03-12T23:29:01.787Z,60.60
2023-03-12T23:31:31.942Z,60.50
2023-03-12T23:34:01.333Z,61.10
2023-03-12T23:36:30.892Z,61.00
2023-03-12T23:39:01.697Z,60.40
2023-03-12T23:41:30.724Z,61.00
2023-03-12T23:44:00.093Z,60.80
2023-03-12T23:46:29.072Z,61.40
2023-03-12T23:48:58.827Z,60.50
2023-03-12T23:51:30.461Z,60.90
2023-03-12T23:54:05.464Z,60.80
2023-03-12T23:56:36.697Z,60.60
2023-03-12T23:59:07.224Z,60.70
